createdAt,value
2023-01-20T05:33:05.478Z,18.57
2023-01-20T05:37:08.617Z,16.23
2023-01-20T05:41:11.586Z,14.03
2023-01-20T05:45:14.884Z,13.40
2023-01-20T05:49:17.741Z,16.08
2023-01-20T05:53:20.907Z,15.48
2023-01-20T05:57:26.712Z,18.83
2023-01-20T06:01:29.735Z,17.48
2023-01-20T06:05:32.866Z,16.70
2023-01-20T06:09:35.842Z,16.17
2023-01-20T06:13:41.209Z,16.98
2023-01-20T06:17:46.684Z,14.90
2023-01-20T06:21:49.754Z,16.67
2023-01-20T06:26:06.879Z,17.08
2023-01-20T06:30:11.021Z,15.18
2023-01-20T06:34:14.017Z,15.48
2023-01-20T06:38:18.058Z,13.43
2023-01-20T06:42:31.797Z,15.80
2023-01-20T06:46:58.745Z,15.80
2023-01-20T06:51:03.376Z,15.07
2023-01-20T06:55:07.668Z,17.42
2023-01-20T06:59:13.417Z,15.35
2023-01-20T07:03:17.875Z,16.67
2023-01-20T07:07:21.351Z,13.77
2023-01-20T07:11:25.334Z,14.73
2023-01-20T07:15:28.218Z,16.45
2023-01-20T07:19:34.475Z,16.63
2023-01-20T07:23:39.896Z,15.13
2023-01-20T07:27:59.476Z,14.82
2023-01-20T07:32:02.503Z,18.50
2023-01-20T07:36:07.585Z,17.73
2023-01-20T07:40:15.656Z,14.90
2023-01-20T07:44:25.310Z,17.57
2023-01-20T07:48:32.033Z,15.75
2023-01-20T07:52:39.744Z,15.32
2023-01-20T07:56:42.775Z,15.98
2023-01-20T08:00:48.894Z,14.33
2023-01-20T08:04:52.244Z,14.73
2023-01-20T08:08:58.466Z,15.30
2023-01-20T08:13:02.283Z,16.00
2023-01-20T08:17:05.004Z,16.48
2023-01-20T08:21:16.419Z,15.27
2023-01-20T08:25:19.072Z,13.47
2023-01-20T08:29:22.715Z,15.75
2023-01-20T08:33:26.575Z,15.45
2023-01-20T08:37:29.553Z,15.82
2023-01-20T08:41:37.623Z,14.33
2023-01-20T08:46:03.196Z,13.07
2023-01-20T08:50:07.184Z,15.15
2023-01-20T08:54:10.674Z,14.63
2023-01-20T08:58:13.366Z,15.45
2023-01-20T09:02:22.166Z,15.68
2023-01-20T09:06:24.962Z,12.37
2023-01-20T09:10:38.515Z,15.15
2023-01-20T09:14:45.090Z,16.70
2023-01-20T09:18:51.656Z,17.20
2023-01-20T09:22:57.783Z,18.40
2023-01-20T09:27:05.185Z,14.63
2023-01-20T09:31:10.051Z,16.50
2023-01-20T09:35:16.120Z,15.13
2023-01-20T09:39:43.129Z,13.62
2023-01-20T09:43:55.508Z,14.48
2023-01-20T09:48:41.489Z,11.53
2023-01-20T09:53:02.951Z,12.10
2023-01-20T09:57:07.436Z,14.13
2023-01-20T10:01:18.893Z,15.55
2023-01-20T10:05:30.755Z,19.83
2023-01-20T10:10:03.104Z,18.12
2023-01-20T10:14:35.705Z,20.48
2023-01-20T10:18:48.419Z,23.93
2023-01-20T10:22:56.083Z,24.77
2023-01-20T10:27:04.963Z,21.20
2023-01-20T10:31:24.228Z,15.53
2023-01-20T10:35:28.855Z,18.42
2023-01-20T10:39:39.512Z,14.65
2023-01-20T10:43:43.067Z,17.52
2023-01-20T10:48:07.597Z,17.97
2023-01-20T10:52:13.485Z,23.12
2023-01-20T10:56:32.744Z,28.85
2023-01-20T11:00:39.893Z,16.33
2023-01-20T11:04:53.105Z,16.42
2023-01-20T11:08:56.985Z,22.23
2023-01-20T11:13:02.638Z,17.50
2023-01-20T11:17:07.304Z,17.27
2023-01-20T11:21:13.342Z,16.60
2023-01-20T11:25:27.392Z,28.45
2023-01-20T11:29:31.711Z,17.23
2023-01-20T11:33:34.559Z,18.23
2023-01-20T11:37:40.590Z,14.75
2023-01-20T11:41:43.734Z,18.33
2023-01-20T11:45:47.712Z,15.13
2023-01-20T11:50:09.357Z,13.20
2023-01-20T11:54:16.384Z,9.83
2023-01-20T11:58:25.802Z,12.77
2023-01-20T12:02:28.971Z,11.90
2023-01-20T12:07:00.117Z,10.27
2023-01-20T12:11:05.518Z,10.60
2023-01-20T12:15:25.728Z,9.85
2023-01-20T12:20:00.018Z,9.23
2023-01-20T12:24:42.429Z,16.23
2023-01-20T12:28:54.879Z,17.33
2023-01-20T12:32:58.702Z,15.32
2023-01-20T12:37:04.258Z,14.50
2023-01-20T12:41:13.837Z,19.65
2023-01-20T12:45:34.955Z,19.75
2023-01-20T12:49:48.732Z,16.75
2023-01-20T12:54:20.050Z,17.27
2023-01-20T12:58:36.013Z,18.12
2023-01-20T13:03:16.569Z,16.20
2023-01-20T13:07:30.269Z,16.83
2023-01-20T13:11:32.899Z,14.27
2023-01-20T13:15:42.030Z,14.45
2023-01-20T13:19:49.617Z,17.67
2023-01-20T13:23:52.903Z,16.67
2023-01-20T13:27:55.955Z,15.77
2023-01-20T13:31:59.108Z,16.12
2023-01-20T13:36:18.852Z,18.90
2023-01-20T13:40:37.091Z,16.48
2023-01-20T13:44:42.427Z,19.77
2023-01-20T13:49:24.517Z,17.10
2023-01-20T13:53:28.551Z,17.87
2023-01-20T13:57:43.833Z,14.87
2023-01-20T14:01:48.847Z,15.77
2023-01-20T14:06:03.371Z,15.55
2023-01-20T14:10:11.879Z,16.67
2023-01-20T14:14:19.374Z,21.90
2023-01-20T14:18:23.990Z,14.60
2023-01-20T14:22:30.026Z,18.48
2023-01-20T14:26:33.425Z,25.37
2023-01-20T14:30:36.629Z,14.80
2023-01-20T14:34:40.522Z,15.38
2023-01-20T14:38:56.439Z,17.85
2023-01-20T14:43:02.238Z,17.00
2023-01-20T14:47:05.400Z,15.85
2023-01-20T14:51:08.352Z,12.18
2023-01-20T14:55:31.886Z,17.92
2023-01-20T14:59:34.606Z,25.10
2023-01-20T15:03:37.665Z,30.52
2023-01-20T15:07:40.270Z,35.05
2023-01-20T15:11:43.385Z,27.53
2023-01-20T15:15:46.020Z,26.62
2023-01-20T15:19:49.041Z,22.80
2023-01-20T15:23:52.930Z,30.87
2023-01-20T15:27:57.289Z,63.53
2023-01-20T15:32:02.488Z,38.78
2023-01-20T15:36:37.192Z,42.15
2023-01-20T15:40:40.906Z,48.47
2023-01-20T15:44:43.880Z,46.35
2023-01-20T15:48:46.568Z,42.85
2023-01-20T15:52:49.744Z,35.83
2023-01-20T15:56:52.411Z,25.27
2023-01-20T16:00:56.702Z,49.80
2023-01-20T16:04:59.624Z,44.47
2023-01-20T16:09:11.105Z,35.17
2023-01-20T16:13:14.747Z,27.33
2023-01-20T16:17:21.159Z,31.15
2023-01-20T16:21:24.218Z,34.20
